Time;durP1;ratioP1;P1;durP2;ratioP2;P2;SDS_P1;SDS_P2;PMS_P1;PMS_P2;Temp;Humidity;BMP_temperature;BMP_pressure;BME280_temperature;BME280_humidity;BME280_pressure;Samples;Min_cycle;Max_cycle;Signal;HPM_P1;HPM_P2
2022/03/17 00:00:21;;;;;;;76.20;45.03;;;;;;;;;;6267786;28;20041;-75
2022/03/17 00:03:22;;;;;;;72.75;45.30;;;;;;;;;;6262714;28;20175;-77
2022/03/17 00:06:25;;;;;;;75.53;46.63;;;;;;;;;;6259572;28;20075;-72
2022/03/17 00:09:27;;;;;;;106.97;64.13;;;;;;;;;;6255469;28;20503;-70
2022/03/17 00:12:29;;;;;;;77.68;47.10;;;;;;;;;;6259528;28;20147;-75
2022/03/17 00:15:30;;;;;;;75.45;46.50;;;;;;;;;;6272857;28;20115;-75
2022/03/17 00:18:32;;;;;;;70.75;44.08;;;;;;;;;;6263833;28;20114;-75
2022/03/17 00:21:36;;;;;;;71.53;44.97;;;;;;;;;;6267042;28;20063;-75
2022/03/17 00:24:38;;;;;;;74.82;44.55;;;;;;;;;;6264250;28;20054;-75
2022/03/17 00:27:39;;;;;;;76.35;44.55;;;;;;;;;;6270406;28;20509;-75
2022/03/17 00:30:41;;;;;;;78.90;46.25;;;;;;;;;;6282606;28;20060;-75
2022/03/17 00:33:42;;;;;;;77.78;44.95;;;;;;;;;;6277939;28;20097;-75
2022/03/17 00:36:47;;;;;;;71.47;43.50;;;;;;;;;;6273503;28;20477;-75
2022/03/17 00:39:49;;;;;;;72.68;43.95;;;;;;;;;;6270596;28;20044;-75
2022/03/17 00:42:51;;;;;;;72.97;45.17;;;;;;;;;;6266751;28;20170;-74
2022/03/17 00:45:53;;;;;;;70.25;44.92;;;;;;;;;;6265171;28;20049;-75
2022/03/17 00:48:55;;;;;;;74.95;45.03;;;;;;;;;;6275730;28;20197;-74
2022/03/17 00:51:57;;;;;;;70.65;42.80;;;;;;;;;;6278137;28;20052;-74
2022/03/17 00:54:59;;;;;;;72.28;42.55;;;;;;;;;;6275953;28;20507;-76
2022/03/17 00:58:01;;;;;;;68.03;42.95;;;;;;;;;;6270474;28;20076;-79
2022/03/17 01:01:02;;;;;;;67.28;41.10;;;;;;;;;;6267305;28;20096;-77
2022/03/17 01:04:04;;;;;;;72.57;43.55;;;;;;;;;;6264862;28;20631;-76
2022/03/17 01:07:07;;;;;;;73.10;42.25;;;;;;;;;;6263219;28;20063;-73
2022/03/17 01:10:10;;;;;;;73.47;42.17;;;;;;;;;;6279614;28;20057;-73
2022/03/17 01:13:12;;;;;;;70.13;41.75;;;;;;;;;;6275764;28;20596;-72
2022/03/17 01:16:13;;;;;;;65.30;40.70;;;;;;;;;;6269729;28;20041;-73
2022/03/17 01:19:19;;;;;;;64.35;39.45;;;;;;;;;;6261976;28;20041;-74
2022/03/17 01:22:23;;;;;;;71.03;41.20;;;;;;;;;;6265405;28;20072;-70
2022/03/17 01:25:24;;;;;;;;;;;;;;;;;;6279212;28;20040;-70
2022/03/17 01:28:26;;;;;;;66.45;38.28;;;;;;;;;;6274782;28;19924;-70
2022/03/17 01:31:27;;;;;;;64.28;38.13;;;;;;;;;;6274034;28;20136;-70
2022/03/17 01:34:29;;;;;;;69.57;40.22;;;;;;;;;;6269158;28;20567;-70
2022/03/17 01:37:32;;;;;;;67.22;38.88;;;;;;;;;;6266881;28;20139;-70
2022/03/17 01:40:33;;;;;;;66.35;39.28;;;;;;;;;;6261258;28;20055;-73
2022/03/17 01:43:35;;;;;;;67.10;40.38;;;;;;;;;;6261178;28;20045;-71
2022/03/17 01:49:52;;;;;;;65.85;39.20;;;;;;;;;;6268476;28;20565;-72
2022/03/17 01:52:55;;;;;;;64.70;38.60;;;;;;;;;;6269516;28;20132;-72
2022/03/17 01:55:58;;;;;;;66.88;40.17;;;;;;;;;;6266644;28;20124;-73
2022/03/17 01:58:59;;;;;;;65.15;39.30;;;;;;;;;;6274782;28;20051;-74
2022/03/17 02:02:02;;;;;;;65.90;39.55;;;;;;;;;;6273875;28;20495;-74
2022/03/17 02:05:05;;;;;;;72.22;41.20;;;;;;;;;;6275976;28;20088;-72
2022/03/17 02:08:09;;;;;;;64.93;40.90;;;;;;;;;;6270194;28;20162;-72
2022/03/17 02:14:34;;;;;;;68.32;41.47;;;;;;;;;;6262443;28;20548;-71
2022/03/17 02:17:39;;;;;;;66.90;40.17;;;;;;;;;;6222625;28;1077553;-71
2022/03/17 02:20:41;;;;;;;67.38;40.47;;;;;;;;;;6257538;28;20585;-71
2022/03/17 02:27:04;;;;;;;66.72;41.05;;;;;;;;;;6252934;28;20105;-70
2022/03/17 02:30:07;;;;;;;70.38;41.20;;;;;;;;;;6270369;28;20119;-72
2022/03/17 02:33:11;;;;;;;67.03;42.00;;;;;;;;;;6279742;28;20500;-72
2022/03/17 02:36:13;;;;;;;67.85;41.97;;;;;;;;;;6274949;28;20099;-71
2022/03/17 02:39:16;;;;;;;65.22;40.17;;;;;;;;;;6277047;28;20055;-72
2022/03/17 02:42:18;;;;;;;70.25;41.13;;;;;;;;;;6271651;28;20172;-73
2022/03/17 02:45:19;;;;;;;71.57;42.75;;;;;;;;;;6267376;28;20044;-73
2022/03/17 02:48:21;;;;;;;65.43;39.85;;;;;;;;;;6270578;28;20053;-72
2022/03/17 02:51:23;;;;;;;65.75;41.20;;;;;;;;;;6266589;28;20128;-72
2022/03/17 02:54:25;;;;;;;68.18;40.83;;;;;;;;;;6263233;28;20136;-72
2022/03/17 02:57:27;;;;;;;61.92;39.10;;;;;;;;;;6258697;28;20172;-72
2022/03/17 03:00:29;;;;;;;62.90;39.65;;;;;;;;;;6256092;28;20521;-73
2022/03/17 03:03:30;;;;;;;61.00;38.47;;;;;;;;;;6258283;28;20126;-73
2022/03/17 03:06:32;;;;;;;64.30;40.25;;;;;;;;;;6253686;28;20184;-71
2022/03/17 03:09:35;;;;;;;64.68;40.67;;;;;;;;;;6289014;28;20567;-72
2022/03/17 03:12:37;;;;;;;67.88;39.25;;;;;;;;;;6284185;28;20044;-71
2022/03/17 03:15:38;;;;;;;69.57;38.63;;;;;;;;;;6283938;28;20058;-73
2022/03/17 03:18:40;;;;;;;60.83;38.20;;;;;;;;;;6275641;28;20052;-71
2022/03/17 03:21:43;;;;;;;64.35;37.85;;;;;;;;;;6276707;28;20053;-71
2022/03/17 03:24:46;;;;;;;58.92;37.58;;;;;;;;;;6268371;28;20056;-72
2022/03/17 03:27:47;;;;;;;60.65;37.22;;;;;;;;;;6265011;28;20049;-72
2022/03/17 03:30:50;;;;;;;62.40;37.05;;;;;;;;;;6261339;28;20045;-71
2022/03/17 03:33:52;;;;;;;58.40;36.27;;;;;;;;;;6263015;28;20049;-70
2022/03/17 03:40:15;;;;;;;60.45;36.67;;;;;;;;;;6252712;28;20501;-71
2022/03/17 03:43:17;;;;;;;65.20;37.78;;;;;;;;;;6262920;28;20520;-71
2022/03/17 03:46:18;;;;;;;59.97;36.63;;;;;;;;;;6267068;28;20041;-71
2022/03/17 03:49:21;;;;;;;61.03;37.35;;;;;;;;;;6279145;28;20052;-71
2022/03/17 03:52:22;;;;;;;61.63;36.88;;;;;;;;;;6282425;28;20059;-71
2022/03/17 03:55:25;;;;;;;61.25;36.03;;;;;;;;;;6280662;28;20056;-71
2022/03/17 03:58:27;;;;;;;59.17;36.38;;;;;;;;;;6275481;28;20052;-71
2022/03/17 04:01:30;;;;;;;59.10;37.08;;;;;;;;;;6273717;28;20128;-71
2022/03/17 04:04:34;;;;;;;64.77;38.13;;;;;;;;;;6267145;28;20057;-71
2022/03/17 04:07:35;;;;;;;62.90;36.60;;;;;;;;;;6264333;28;20059;-71
2022/03/17 04:10:38;;;;;;;58.40;36.50;;;;;;;;;;6262043;28;20132;-71
2022/03/17 04:13:40;;;;;;;61.75;35.95;;;;;;;;;;6258535;28;20088;-71
2022/03/17 04:16:42;;;;;;;59.53;36.90;;;;;;;;;;6258837;28;20132;-71
2022/03/17 04:19:43;;;;;;;69.60;36.65;;;;;;;;;;6274507;28;20036;-71
2022/03/17 04:22:45;;;;;;;57.95;34.75;;;;;;;;;;6267489;28;20269;-71
2022/03/17 04:25:48;;;;;;;60.92;35.78;;;;;;;;;;6262311;28;20056;-71
2022/03/17 04:28:49;;;;;;;60.20;36.15;;;;;;;;;;6273645;28;20135;-71
2022/03/17 04:31:51;;;;;;;59.58;35.80;;;;;;;;;;6275268;28;20124;-71
2022/03/17 04:34:53;;;;;;;62.65;37.03;;;;;;;;;;6277508;28;20119;-71
2022/03/17 04:37:54;;;;;;;59.10;35.38;;;;;;;;;;6274395;28;20693;-71
2022/03/17 04:40:57;;;;;;;62.45;37.17;;;;;;;;;;6266025;28;20614;-71
2022/03/17 04:43:59;;;;;;;61.70;35.65;;;;;;;;;;6265232;28;20096;-71
2022/03/17 04:47:01;;;;;;;59.28;37.28;;;;;;;;;;6261184;28;20041;-71
2022/03/17 04:50:02;;;;;;;57.83;36.22;;;;;;;;;;6258154;28;20103;-71
2022/03/17 04:56:24;;;;;;;60.70;35.67;;;;;;;;;;6268776;28;20485;-70
2022/03/17 04:59:26;;;;;;;60.28;35.63;;;;;;;;;;6270178;28;20106;-71
2022/03/17 05:02:27;;;;;;;60.08;35.58;;;;;;;;;;6266041;28;20078;-71
2022/03/17 05:05:29;;;;;;;64.90;34.78;;;;;;;;;;6261381;28;20127;-71
2022/03/17 05:08:32;;;;;;;66.80;36.17;;;;;;;;;;6269848;28;20096;-71
2022/03/17 05:11:35;;;;;;;55.95;35.13;;;;;;;;;;6282048;28;20400;-71
2022/03/17 05:14:36;;;;;;;57.78;35.13;;;;;;;;;;6276094;28;20076;-71
2022/03/17 05:17:41;;;;;;;60.85;34.92;;;;;;;;;;6271417;28;20554;-71
2022/03/17 05:20:43;;;;;;;62.80;35.33;;;;;;;;;;6266681;28;20098;-71
2022/03/17 05:23:44;;;;;;;63.38;36.28;;;;;;;;;;6265469;28;20120;-71
2022/03/17 05:26:47;;;;;;;61.97;35.97;;;;;;;;;;6270254;28;20485;-71
2022/03/17 05:29:49;;;;;;;62.20;36.42;;;;;;;;;;6281488;28;20161;-71
2022/03/17 05:32:50;;;;;;;67.28;35.08;;;;;;;;;;6276891;28;20047;-71
2022/03/17 05:35:52;;;;;;;60.58;36.75;;;;;;;;;;6272303;28;20045;-71
2022/03/17 05:38:53;;;;;;;63.35;37.80;;;;;;;;;;6268861;28;20382;-71
2022/03/17 05:41:56;;;;;;;60.28;36.97;;;;;;;;;;6264661;28;20097;-71
2022/03/17 05:44:58;;;;;;;67.50;38.55;;;;;;;;;;6267861;28;20504;-71
2022/03/17 05:48:00;;;;;;;68.80;37.72;;;;;;;;;;6264113;28;20060;-72
2022/03/17 05:51:02;;;;;;;62.75;38.17;;;;;;;;;;6277707;28;20056;-71
2022/03/17 05:54:04;;;;;;;66.47;39.50;;;;;;;;;;6272332;28;20134;-71
2022/03/17 05:57:09;;;;;;;65.13;38.50;;;;;;;;;;6267840;28;20185;-71
2022/03/17 06:00:13;;;;;;;67.93;40.00;;;;;;;;;;6264330;28;20060;-71
2022/03/17 06:03:14;;;;;;;;;;;;;;;;;;6281118;28;20412;-71
2022/03/17 06:06:16;;;;;;;64.95;37.55;;;;;;;;;;6278670;28;19941;-74
2022/03/17 06:09:18;;;;;;;69.55;40.78;;;;;;;;;;6276702;28;20050;-72
2022/03/17 06:12:21;;;;;;;64.57;38.75;;;;;;;;;;6270861;28;20143;-72
2022/03/17 06:15:24;;;;;;;69.00;38.33;;;;;;;;;;6268557;28;20053;-72
2022/03/17 06:18:25;;;;;;;67.53;39.15;;;;;;;;;;6268666;28;20053;-68
2022/03/17 06:21:27;;;;;;;67.60;38.15;;;;;;;;;;6263657;28;20345;-69
2022/03/17 06:24:28;;;;;;;62.78;38.40;;;;;;;;;;6258047;28;20120;-68
2022/03/17 06:27:31;;;;;;;66.57;37.63;;;;;;;;;;6258541;28;20063;-70
2022/03/17 06:30:35;;;;;;;66.90;39.15;;;;;;;;;;6273164;28;20069;-71
2022/03/17 06:33:36;;;;;;;67.07;38.05;;;;;;;;;;6268668;28;20561;-70
2022/03/17 06:36:38;;;;;;;68.30;40.47;;;;;;;;;;6270211;28;20072;-71
2022/03/17 06:39:39;;;;;;;64.53;39.85;;;;;;;;;;6285756;28;20049;-71
2022/03/17 06:42:43;;;;;;;63.97;37.72;;;;;;;;;;6280678;28;20053;-69
2022/03/17 06:45:44;;;;;;;64.00;38.97;;;;;;;;;;6279360;28;20496;-70
2022/03/17 06:48:46;;;;;;;70.25;38.97;;;;;;;;;;6273547;28;20052;-70
2022/03/17 06:51:47;;;;;;;71.45;39.28;;;;;;;;;;6271505;28;20063;-70
2022/03/17 06:54:49;;;;;;;69.25;41.55;;;;;;;;;;6261621;28;20424;-70
2022/03/17 06:57:52;;;;;;;70.38;38.80;;;;;;;;;;6262263;28;20053;-70
2022/03/17 07:00:53;;;;;;;66.65;39.92;;;;;;;;;;6256622;28;20124;-70
2022/03/17 07:03:55;;;;;;;65.53;39.28;;;;;;;;;;6254347;28;20053;-70
2022/03/17 07:06:56;;;;;;;69.88;39.47;;;;;;;;;;6249429;28;20056;-70
2022/03/17 07:09:58;;;;;;;70.32;39.42;;;;;;;;;;6268940;28;20047;-70
2022/03/17 07:13:01;;;;;;;67.18;39.92;;;;;;;;;;6280978;28;20119;-69
2022/03/17 07:16:03;;;;;;;73.88;41.40;;;;;;;;;;6281524;28;20132;-69
2022/03/17 07:19:04;;;;;;;74.13;40.95;;;;;;;;;;6279163;28;20217;-70
2022/03/17 07:22:07;;;;;;;68.10;40.47;;;;;;;;;;6274430;28;20116;-70
2022/03/17 07:25:10;;;;;;;68.18;41.20;;;;;;;;;;6269298;28;20048;-72
2022/03/17 07:28:15;;;;;;;73.93;40.55;;;;;;;;;;6268251;28;20393;-72
2022/03/17 07:31:17;;;;;;;71.55;40.25;;;;;;;;;;6263840;28;20239;-72
2022/03/17 07:34:18;;;;;;;70.93;41.55;;;;;;;;;;6260884;28;20089;-72
2022/03/17 07:37:20;;;;;;;66.68;41.13;;;;;;;;;;6258975;28;20049;-72
2022/03/17 07:40:21;;;;;;;70.55;38.88;;;;;;;;;;6255531;28;20107;-71
2022/03/17 07:43:25;;;;;;;71.78;42.70;;;;;;;;;;6250668;28;20045;-73
2022/03/17 07:46:27;;;;;;;66.45;40.30;;;;;;;;;;6252703;28;20132;-71
2022/03/17 07:49:28;;;;;;;73.65;41.67;;;;;;;;;;6279679;28;20048;-72
2022/03/17 07:52:30;;;;;;;72.30;41.88;;;;;;;;;;6281260;28;20127;-72
2022/03/17 07:55:32;;;;;;;69.47;42.40;;;;;;;;;;6278479;28;20123;-71
2022/03/17 07:58:35;;;;;;;69.88;40.60;;;;;;;;;;6277672;28;20049;-72
2022/03/17 08:01:36;;;;;;;67.13;40.33;;;;;;;;;;6273238;28;20053;-71
2022/03/17 08:04:38;;;;;;;71.15;41.15;;;;;;;;;;6268354;28;20048;-72
2022/03/17 08:07:40;;;;;;;66.47;40.60;;;;;;;;;;6266212;28;20049;-72
2022/03/17 08:10:42;;;;;;;69.13;41.35;;;;;;;;;;6261024;28;20343;-72
2022/03/17 08:13:45;;;;;;;70.97;41.42;;;;;;;;;;6258794;28;20045;-71
2022/03/17 08:16:47;;;;;;;67.53;40.90;;;;;;;;;;6257863;28;20534;-71
2022/03/17 08:19:48;;;;;;;76.72;41.85;;;;;;;;;;6254595;28;20104;-72
2022/03/17 08:22:50;;;;;;;70.57;43.88;;;;;;;;;;6265264;28;20404;-72
2022/03/17 08:25:51;;;;;;;72.68;42.13;;;;;;;;;;6267367;28;20072;-72
2022/03/17 08:28:54;;;;;;;68.95;40.80;;;;;;;;;;6276275;28;20045;-72
2022/03/17 08:31:56;;;;;;;71.10;40.65;;;;;;;;;;6278180;28;20135;-72
2022/03/17 08:34:57;;;;;;;71.15;40.22;;;;;;;;;;6278559;28;20124;-72
2022/03/17 08:37:59;;;;;;;76.15;40.60;;;;;;;;;;6273342;28;20310;-72
2022/03/17 08:41:01;;;;;;;71.40;41.75;;;;;;;;;;6273160;28;20132;-71
2022/03/17 08:44:04;;;;;;;66.25;41.72;;;;;;;;;;6269168;28;20122;-71
2022/03/17 08:50:25;;;;;;;74.32;41.92;;;;;;;;;;6264845;28;20053;-71
2022/03/17 08:53:26;;;;;;;66.30;39.63;;;;;;;;;;6260594;28;20041;-72
2022/03/17 08:56:28;;;;;;;67.55;40.45;;;;;;;;;;6265586;28;20049;-71
2022/03/17 08:59:32;;;;;;;70.28;42.65;;;;;;;;;;6275598;28;20052;-72
2022/03/17 09:02:33;;;;;;;;;;;;;;;;;;6270833;28;20049;-72
2022/03/17 09:05:35;;;;;;;69.10;40.83;;;;;;;;;;6269243;28;19924;-71
2022/03/17 09:08:37;;;;;;;67.18;41.17;;;;;;;;;;6275751;28;20500;-73
2022/03/17 09:11:39;;;;;;;61.17;40.42;;;;;;;;;;6283350;28;20049;-73
2022/03/17 09:14:44;;;;;;;70.32;38.85;;;;;;;;;;6280260;28;20119;-72
2022/03/17 09:17:45;;;;;;;69.97;40.38;;;;;;;;;;6276332;28;20055;-73
2022/03/17 09:20:47;;;;;;;66.47;40.10;;;;;;;;;;6271452;28;20049;-72
2022/03/17 09:23:48;;;;;;;64.78;36.97;;;;;;;;;;6269546;28;20079;-70
2022/03/17 09:26:50;;;;;;;72.85;40.53;;;;;;;;;;6267054;28;20052;-71
2022/03/17 09:29:53;;;;;;;64.43;38.40;;;;;;;;;;6261380;28;20080;-72
2022/03/17 09:32:54;;;;;;;66.80;40.10;;;;;;;;;;6277046;28;20045;-71
2022/03/17 09:35:57;;;;;;;69.72;40.70;;;;;;;;;;6276454;28;20408;-72
2022/03/17 09:42:21;;;;;;;63.58;40.08;;;;;;;;;;6272158;28;20053;-72
2022/03/17 09:45:24;;;;;;;67.93;38.53;;;;;;;;;;6265271;28;20136;-73
2022/03/17 09:48:27;;;;;;;66.93;40.83;;;;;;;;;;6265387;28;20397;-71
2022/03/17 09:51:29;;;;;;;67.28;40.55;;;;;;;;;;6279246;28;20041;-71
2022/03/17 09:54:33;;;;;;;66.85;40.85;;;;;;;;;;6276491;28;20045;-71
2022/03/17 09:57:35;;;;;;;66.70;38.83;;;;;;;;;;6273051;28;20464;-71
2022/03/17 10:00:52;;;;;;;64.53;38.38;;;;;;;;;;6267485;28;20110;-72
2022/03/17 10:03:58;;;;;;;64.30;38.83;;;;;;;;;;6266370;28;20053;-71
2022/03/17 10:07:01;;;;;;;65.20;39.28;;;;;;;;;;6268196;28;20071;-71
2022/03/17 10:10:02;;;;;;;72.95;39.35;;;;;;;;;;6272063;28;20133;-72
2022/03/17 10:13:06;;;;;;;65.32;38.97;;;;;;;;;;6264991;28;20052;-72
2022/03/17 10:16:10;;;;;;;66.93;38.92;;;;;;;;;;6265335;28;20489;-71
2022/03/17 10:19:13;;;;;;;64.35;38.90;;;;;;;;;;6270156;28;20134;-69
2022/03/17 10:22:14;;;;;;;61.60;37.70;;;;;;;;;;6259082;28;20401;-74
2022/03/17 10:25:18;;;;;;;64.05;39.05;;;;;;;;;;6261552;28;20159;-72
2022/03/17 10:28:20;;;;;;;67.88;39.40;;;;;;;;;;6267867;28;20087;-72
2022/03/17 10:31:24;;;;;;;69.40;37.45;;;;;;;;;;6276861;28;20057;-71
2022/03/17 10:34:28;;;;;;;67.75;39.03;;;;;;;;;;6270928;28;20052;-71
2022/03/17 10:37:31;;;;;;;68.43;38.85;;;;;;;;;;6265348;28;20056;-72
2022/03/17 10:40:32;;;;;;;59.92;37.28;;;;;;;;;;6267211;28;20048;-70
2022/03/17 10:43:34;;;;;;;65.70;37.60;;;;;;;;;;6283502;28;20040;-71
2022/03/17 10:46:37;;;;;;;58.22;35.08;;;;;;;;;;6279974;28;20058;-73
2022/03/17 10:49:39;;;;;;;59.40;35.60;;;;;;;;;;6274919;28;20147;-73
2022/03/17 10:52:46;;;;;;;58.13;35.28;;;;;;;;;;6272719;28;20056;-73
2022/03/17 10:55:49;;;;;;;57.05;34.95;;;;;;;;;;6271006;28;20045;-73
2022/03/17 10:58:51;;;;;;;59.00;36.03;;;;;;;;;;6263333;28;20041;-73
2022/03/17 11:01:55;;;;;;;63.75;37.40;;;;;;;;;;6265643;28;20394;-72
2022/03/17 11:05:00;;;;;;;63.85;38.70;;;;;;;;;;6260968;28;20119;-73
2022/03/17 11:08:02;;;;;;;63.05;37.15;;;;;;;;;;6266047;28;20067;-73
2022/03/17 11:11:05;;;;;;;65.47;37.53;;;;;;;;;;6268887;28;20128;-73
2022/03/17 11:14:09;;;;;;;73.60;43.50;;;;;;;;;;6267779;28;20558;-71
2022/03/17 11:17:14;;;;;;;70.80;41.95;;;;;;;;;;6276710;28;20094;-71
2022/03/17 11:20:19;;;;;;;169.00;93.85;;;;;;;;;;6276824;28;20560;-72
2022/03/17 11:23:25;;;;;;;85.70;54.47;;;;;;;;;;6274644;28;20187;-70
2022/03/17 11:26:34;;;;;;;63.08;40.83;;;;;;;;;;6275009;28;20091;-75
2022/03/17 11:29:40;;;;;;;60.72;37.35;;;;;;;;;;6270718;28;20045;-73
2022/03/17 11:32:54;;;;;;;60.55;36.80;;;;;;;;;;6267319;28;20052;-72
2022/03/17 11:35:59;;;;;;;63.63;38.58;;;;;;;;;;6266350;28;20087;-73
2022/03/17 11:39:18;;;;;;;61.92;38.03;;;;;;;;;;6261439;28;20045;-72
2022/03/17 11:42:39;;;;;;;65.85;39.60;;;;;;;;;;6255941;28;20078;-71
2022/03/17 11:45:42;;;;;;;60.70;39.90;;;;;;;;;;6254122;28;20120;-72
2022/03/17 11:48:47;;;;;;;67.30;41.28;;;;;;;;;;6261136;28;20071;-72
2022/03/17 11:51:57;;;;;;;66.18;40.22;;;;;;;;;;6279956;28;20484;-72
2022/03/17 11:55:33;;;;;;;65.13;39.85;;;;;;;;;;6275646;28;20088;-72
2022/03/17 11:58:42;;;;;;;69.53;40.60;;;;;;;;;;6274599;28;20150;-72
2022/03/17 12:01:46;;;;;;;65.10;38.92;;;;;;;;;;6273573;28;20047;-73
2022/03/17 12:04:51;;;;;;;69.28;41.08;;;;;;;;;;6272259;28;20065;-72
2022/03/17 12:07:59;;;;;;;65.07;38.97;;;;;;;;;;6270168;28;20150;-72
2022/03/17 12:11:09;;;;;;;66.60;39.58;;;;;;;;;;6265664;28;20048;-73
2022/03/17 12:14:22;;;;;;;69.53;38.95;;;;;;;;;;6264311;28;20052;-73
2022/03/17 12:17:24;;;;;;;63.85;39.20;;;;;;;;;;6258942;28;20063;-74
2022/03/17 12:20:28;;;;;;;61.08;38.92;;;;;;;;;;6262233;28;20045;-73
2022/03/17 12:23:49;;;;;;;67.88;40.05;;;;;;;;;;6258022;28;20045;-73
2022/03/17 12:27:03;;;;;;;65.25;39.13;;;;;;;;;;6270213;28;20210;-73
2022/03/17 12:30:06;;;;;;;59.15;39.42;;;;;;;;;;6287094;28;20133;-73
2022/03/17 12:33:08;;;;;;;65.07;41.67;;;;;;;;;;6285478;28;20048;-72
2022/03/17 12:36:12;;;;;;;66.32;39.80;;;;;;;;;;6283213;28;20128;-72
2022/03/17 12:39:15;;;;;;;67.03;41.38;;;;;;;;;;6282168;28;20141;-71
2022/03/17 12:42:19;;;;;;;63.45;39.60;;;;;;;;;;6277481;28;20515;-72
2022/03/17 12:45:23;;;;;;;57.30;36.50;;;;;;;;;;6273822;28;20162;-73
2022/03/17 12:48:25;;;;;;;56.60;38.25;;;;;;;;;;6270169;28;20045;-72
2022/03/17 12:51:28;;;;;;;58.55;38.40;;;;;;;;;;6270657;28;20163;-72
2022/03/17 12:54:29;;;;;;;53.57;36.30;;;;;;;;;;6264053;28;20044;-71
2022/03/17 12:57:33;;;;;;;53.00;36.47;;;;;;;;;;6258052;28;20072;-72
2022/03/17 13:00:42;;;;;;;59.30;37.17;;;;;;;;;;6262142;28;20174;-72
2022/03/17 13:03:45;;;;;;;55.70;37.40;;;;;;;;;;6273009;28;20049;-72
2022/03/17 13:06:54;;;;;;;57.97;38.20;;;;;;;;;;6270908;28;20591;-73
2022/03/17 13:09:56;;;;;;;61.75;38.33;;;;;;;;;;6285197;28;20082;-70
2022/03/17 13:16:17;;;;;;;59.80;37.00;;;;;;;;;;6282549;28;20132;-71
2022/03/17 13:19:18;;;;;;;57.95;35.20;;;;;;;;;;6276622;28;20074;-71
2022/03/17 13:22:24;;;;;;;52.42;35.70;;;;;;;;;;6274849;28;20057;-72
2022/03/17 13:25:27;;;;;;;59.58;35.58;;;;;;;;;;6264656;28;20497;-72
2022/03/17 13:28:28;;;;;;;57.28;35.92;;;;;;;;;;6266513;28;20139;-72
2022/03/17 13:31:34;;;;;;;59.03;36.75;;;;;;;;;;6259212;28;20057;-78
2022/03/17 13:34:36;;;;;;;134.38;76.45;;;;;;;;;;6258288;28;20045;-70
2022/03/17 13:37:41;;;;;;;71.63;43.97;;;;;;;;;;6277207;28;20999;-71
2022/03/17 13:40:45;;;;;;;105.75;63.08;;;;;;;;;;6271002;28;20124;-72
2022/03/17 13:43:47;;;;;;;134.75;79.55;;;;;;;;;;6270000;28;20498;-71
2022/03/17 13:46:49;;;;;;;54.85;35.50;;;;;;;;;;6267398;28;20045;-70
2022/03/17 13:50:10;;;;;;;52.17;33.97;;;;;;;;;;6281610;28;20135;-76
2022/03/17 13:53:13;;;;;;;58.33;33.78;;;;;;;;;;6276557;28;20187;-72
2022/03/17 13:56:17;;;;;;;54.60;34.37;;;;;;;;;;6274445;28;20072;-72
2022/03/17 13:59:23;;;;;;;54.47;34.08;;;;;;;;;;6272768;28;20053;-72
2022/03/17 14:02:24;;;;;;;53.45;33.00;;;;;;;;;;6266250;28;20101;-72
2022/03/17 14:05:26;;;;;;;56.42;36.60;;;;;;;;;;6264375;28;20175;-75
2022/03/17 14:08:30;;;;;;;57.60;36.63;;;;;;;;;;6262661;28;20099;-73
2022/03/17 14:11:33;;;;;;;49.85;33.40;;;;;;;;;;6272050;28;20053;-75
2022/03/17 14:14:36;;;;;;;51.88;31.50;;;;;;;;;;6273323;28;20050;-70
2022/03/17 14:17:38;;;;;;;50.45;30.67;;;;;;;;;;6270600;28;20493;-70
2022/03/17 14:20:39;;;;;;;52.17;30.95;;;;;;;;;;6267311;28;20056;-71
2022/03/17 14:27:03;;;;;;;55.88;34.38;;;;;;;;;;6262694;28;20056;-73
2022/03/17 14:30:06;;;;;;;54.30;34.20;;;;;;;;;;6269804;28;20131;-72
2022/03/17 14:33:08;;;;;;;60.45;34.83;;;;;;;;;;6269800;28;20132;-73
2022/03/17 14:36:11;;;;;;;51.05;33.10;;;;;;;;;;6272433;28;20044;-72
2022/03/17 14:39:14;;;;;;;53.70;33.13;;;;;;;;;;6267046;28;20736;-72
2022/03/17 14:42:17;;;;;;;48.75;33.38;;;;;;;;;;6262274;28;20194;-72
2022/03/17 14:45:18;;;;;;;55.28;33.47;;;;;;;;;;6267699;28;20064;-73
2022/03/17 14:48:20;;;;;;;55.53;34.03;;;;;;;;;;6277430;28;20178;-72
2022/03/17 14:51:22;;;;;;;53.72;32.20;;;;;;;;;;6274621;28;20136;-75
2022/03/17 14:54:25;;;;;;;54.50;32.58;;;;;;;;;;6270514;28;20556;-71
2022/03/17 14:57:26;;;;;;;54.00;33.78;;;;;;;;;;6269663;28;20138;-74
2022/03/17 15:00:28;;;;;;;49.72;30.33;;;;;;;;;;6263153;28;20126;-74
2022/03/17 15:03:30;;;;;;;51.63;32.25;;;;;;;;;;6260221;28;20057;-73
2022/03/17 15:06:31;;;;;;;56.65;33.10;;;;;;;;;;6258263;28;20104;-72
2022/03/17 15:09:34;;;;;;;60.55;35.15;;;;;;;;;;6267400;28;20044;-72
2022/03/17 15:12:36;;;;;;;54.95;34.45;;;;;;;;;;6266655;28;20139;-73
2022/03/17 15:15:37;;;;;;;51.22;32.95;;;;;;;;;;6270249;28;20055;-73
2022/03/17 15:18:39;;;;;;;50.80;31.88;;;;;;;;;;6264730;28;20182;-74
2022/03/17 15:21:41;;;;;;;46.35;29.42;;;;;;;;;;6277281;28;20168;-73
2022/03/17 15:24:43;;;;;;;50.58;30.70;;;;;;;;;;6277156;28;20219;-74
2022/03/17 15:31:04;;;;;;;46.17;28.48;;;;;;;;;;6268222;28;20041;-74
2022/03/17 15:34:06;;;;;;;52.33;30.10;;;;;;;;;;6263964;28;20045;-74
2022/03/17 15:37:07;;;;;;;43.92;26.88;;;;;;;;;;6259021;28;20143;-75
2022/03/17 15:40:11;;;;;;;41.60;27.63;;;;;;;;;;6258357;28;20053;-74
2022/03/17 15:43:13;;;;;;;42.30;26.58;;;;;;;;;;6258134;28;20058;-74
2022/03/17 15:46:14;;;;;;;42.70;26.88;;;;;;;;;;6257116;28;20134;-74
2022/03/17 15:49:16;;;;;;;50.28;27.50;;;;;;;;;;6262890;28;20045;-74
2022/03/17 15:52:17;;;;;;;40.30;27.23;;;;;;;;;;6267469;28;20536;-74
2022/03/17 15:55:21;;;;;;;41.35;25.73;;;;;;;;;;6269105;28;20052;-74
2022/03/17 15:58:22;;;;;;;42.40;27.60;;;;;;;;;;6274316;28;20120;-74
2022/03/17 16:01:24;;;;;;;44.67;27.48;;;;;;;;;;6272909;28;20051;-74
2022/03/17 16:04:25;;;;;;;44.70;25.95;;;;;;;;;;6266983;28;20115;-73
2022/03/17 16:07:27;;;;;;;42.58;25.48;;;;;;;;;;6264489;28;20060;-73
2022/03/17 16:17:13;;;;;;;74.63;44.35;;;;;;;;;;6258783;28;20227;-75
2022/03/17 16:20:15;;;;;;;70.30;41.92;;;;;;;;;;6255386;28;20132;-72
2022/03/17 16:23:18;;;;;;;45.47;27.92;;;;;;;;;;6248388;28;20513;-72
2022/03/17 16:26:21;;;;;;;41.28;26.02;;;;;;;;;;6245625;28;20041;-72
2022/03/17 16:29:23;;;;;;;44.78;27.33;;;;;;;;;;6265632;28;20187;-72
2022/03/17 16:32:25;;;;;;;46.63;27.52;;;;;;;;;;6282978;28;20052;-72
2022/03/17 16:35:26;;;;;;;46.42;27.85;;;;;;;;;;6279270;28;20136;-72
2022/03/17 16:38:28;;;;;;;43.45;27.45;;;;;;;;;;6277710;28;20127;-72
2022/03/17 16:41:31;;;;;;;45.78;27.15;;;;;;;;;;6274298;28;20128;-73
2022/03/17 16:44:33;;;;;;;48.73;28.07;;;;;;;;;;6269481;28;20122;-72
2022/03/17 16:47:34;;;;;;;40.40;27.27;;;;;;;;;;6267932;28;20056;-72
2022/03/17 16:50:37;;;;;;;42.05;27.00;;;;;;;;;;6259599;28;20143;-72
2022/03/17 16:53:40;;;;;;;45.30;27.25;;;;;;;;;;6258600;28;20068;-71
2022/03/17 16:56:43;;;;;;;42.50;27.25;;;;;;;;;;6251433;28;20481;-72
2022/03/17 16:59:46;;;;;;;46.20;28.93;;;;;;;;;;6249446;28;20591;-72
2022/03/17 17:02:48;;;;;;;45.65;28.00;;;;;;;;;;6245967;28;20049;-72
2022/03/17 17:05:49;;;;;;;41.08;26.83;;;;;;;;;;6256672;28;20687;-72
2022/03/17 17:08:51;;;;;;;43.28;27.83;;;;;;;;;;6277509;28;20060;-72
2022/03/17 17:11:53;;;;;;;42.53;27.42;;;;;;;;;;6287313;28;20070;-71
2022/03/17 17:14:55;;;;;;;50.47;28.23;;;;;;;;;;6279802;28;20125;-72
2022/03/17 17:17:59;;;;;;;40.38;27.70;;;;;;;;;;6276925;28;20182;-70
2022/03/17 17:21:00;;;;;;;;;;;;;;;;;;6272887;28;20135;-73
2022/03/17 17:30:51;;;;;;;44.33;27.27;;;;;;;;;;6264231;28;20063;-72
2022/03/17 17:33:52;;;;;;;43.75;27.65;;;;;;;;;;6262596;28;20056;-72
2022/03/17 17:36:54;;;;;;;36.97;25.60;;;;;;;;;;6260159;28;20096;-72
2022/03/17 17:39:56;;;;;;;46.67;27.33;;;;;;;;;;6263949;28;20090;-72
2022/03/17 17:43:05;;;;;;;41.95;25.77;;;;;;;;;;6271582;28;20519;-72
2022/03/17 17:46:07;;;;;;;38.88;25.90;;;;;;;;;;6267440;28;20524;-74
2022/03/17 17:49:10;;;;;;;39.55;25.23;;;;;;;;;;6277720;28;20060;-74
2022/03/17 17:52:12;;;;;;;45.50;26.30;;;;;;;;;;6282829;28;20051;-74
2022/03/17 17:55:15;;;;;;;40.42;26.17;;;;;;;;;;6274824;28;20040;-73
2022/03/17 17:58:18;;;;;;;45.25;27.42;;;;;;;;;;6274400;28;20401;-73
2022/03/17 18:01:20;;;;;;;44.90;28.75;;;;;;;;;;6267291;28;20135;-73
2022/03/17 18:04:23;;;;;;;42.80;27.40;;;;;;;;;;6268784;28;20045;-73
2022/03/17 18:07:25;;;;;;;43.83;28.73;;;;;;;;;;6265858;28;20049;-74
2022/03/17 18:10:26;;;;;;;43.58;28.77;;;;;;;;;;6261866;28;20620;-73
2022/03/17 18:13:30;;;;;;;48.47;29.17;;;;;;;;;;6257765;28;20083;-74
2022/03/17 18:16:31;;;;;;;53.35;29.50;;;;;;;;;;6274342;28;20603;-71
2022/03/17 18:19:33;;;;;;;49.53;28.25;;;;;;;;;;6269005;28;20123;-72
2022/03/17 18:22:34;;;;;;;47.28;30.02;;;;;;;;;;6267247;28;20049;-73
2022/03/17 18:25:37;;;;;;;46.13;29.15;;;;;;;;;;6267033;28;20094;-71
2022/03/17 18:28:40;;;;;;;48.33;29.95;;;;;;;;;;6272310;28;20137;-73
2022/03/17 18:31:41;;;;;;;47.47;29.23;;;;;;;;;;6279798;28;20137;-72